Time;durP1;ratioP1;P1;durP2;ratioP2;P2;SDS_P1;SDS_P2;PMS_P1;PMS_P2;Temp;Humidity;BMP_temperature;BMP_pressure;BME280_temperature;BME280_humidity;BME280_pressure;Samples;Min_cycle;Max_cycle;Signal;HPM_P1;HPM_P2
2023/04/21 00:01:39;;;;;;;4.90;3.20;;;4.90;99.90;;;;;;5118812;27;20035;-84
2023/04/21 00:04:05;;;;;;;4.82;2.75;;;4.90;99.90;;;;;;5085025;27;20084;-84
2023/04/21 00:06:31;;;;;;;4.82;3.00;;;5.00;99.90;;;;;;5082403;28;20093;-84
2023/04/21 00:08:57;;;;;;;4.93;2.90;;;5.00;99.90;;;;;;5044887;28;20032;-84
2023/04/21 00:11:23;;;;;;;4.60;2.90;;;5.10;99.90;;;;;;5078819;27;20119;-84
2023/04/21 00:13:49;;;;;;;4.38;2.90;;;5.10;99.90;;;;;;5119348;27;20035;-84
2023/04/21 00:16:14;;;;;;;4.32;2.55;;;5.10;99.90;;;;;;5102099;27;20067;-84
2023/04/21 00:18:40;;;;;;;4.68;3.10;;;5.10;99.90;;;;;;5137271;27;20080;-84
2023/04/21 00:21:06;;;;;;;4.90;2.50;;;5.20;99.90;;;;;;5102042;27;20084;-84
2023/04/21 00:23:32;;;;;;;4.60;2.67;;;5.20;99.90;;;;;;5099090;28;20438;-84
2023/04/21 00:26:01;;;;;;;4.55;2.70;;;5.20;99.90;;;;;;5080772;28;20042;-84
2023/04/21 00:28:27;;;;;;;4.15;2.90;;;5.30;99.90;;;;;;5115799;28;20028;-84
2023/04/21 00:30:53;;;;;;;4.50;2.63;;;5.30;99.90;;;;;;5113676;28;20158;-84
2023/04/21 00:33:18;;;;;;;4.45;2.35;;;5.30;99.90;;;;;;5076755;28;20402;-83
2023/04/21 00:35:44;;;;;;;3.47;2.40;;;5.30;99.90;;;;;;5077462;28;20047;-84
2023/04/21 00:38:10;;;;;;;3.85;2.40;;;5.30;99.90;;;;;;5060541;28;20036;-84
2023/04/21 00:40:36;;;;;;;3.88;2.42;;;5.30;99.90;;;;;;5060530;28;20033;-84
2023/04/21 00:43:05;;;;;;;3.75;2.55;;;5.40;99.90;;;;;;5077425;28;20131;-84
2023/04/21 00:45:31;;;;;;;4.88;2.92;;;5.40;99.90;;;;;;5079599;27;20039;-84
2023/04/21 00:47:56;;;;;;;4.35;2.65;;;5.40;99.90;;;;;;5118046;27;20063;-84
2023/04/21 00:50:22;;;;;;;4.63;2.65;;;5.40;99.90;;;;;;5083023;27;20042;-84
2023/04/21 00:52:48;;;;;;;4.13;2.33;;;5.40;99.90;;;;;;5117107;27;20039;-84
2023/04/21 00:55:15;;;;;;;4.82;2.80;;;5.50;99.90;;;;;;5080753;28;20039;-84
2023/04/21 00:57:40;;;;;;;6.68;3.50;;;5.40;99.90;;;;;;5097345;28;20039;-84
2023/04/21 01:00:07;;;;;;;7.05;4.10;;;5.50;99.90;;;;;;5097844;28;20028;-84
2023/04/21 01:02:38;;;;;;;7.15;4.45;;;5.40;99.90;;;;;;5097817;28;20126;-84
2023/04/21 01:05:10;;;;;;;6.80;4.05;;;5.50;99.90;;;;;;5097690;28;20039;-84
2023/04/21 01:07:36;;;;;;;6.72;4.05;;;5.50;99.90;;;;;;5081016;28;20112;-84
2023/04/21 01:10:02;;;;;;;6.45;3.85;;;5.50;99.90;;;;;;5077210;28;20044;-84
2023/04/21 01:12:29;;;;;;;5.45;3.40;;;5.50;99.90;;;;;;5060444;28;20101;-84
2023/04/21 01:14:54;;;;;;;6.65;3.55;;;5.50;99.90;;;;;;5096995;28;20100;-84
2023/04/21 01:17:21;;;;;;;6.20;3.70;;;5.50;99.90;;;;;;5112007;28;20481;-84
2023/04/21 01:19:47;;;;;;;5.60;3.15;;;5.50;99.90;;;;;;5089812;28;20067;-84
2023/04/21 01:22:14;;;;;;;4.32;2.72;;;5.50;99.90;;;;;;5135647;28;20038;-84
2023/04/21 01:24:42;;;;;;;4.03;2.70;;;5.50;99.90;;;;;;5099919;28;20039;-84
2023/04/21 01:27:10;;;;;;;5.30;2.67;;;5.50;99.90;;;;;;5100577;28;20041;-84
2023/04/21 01:29:36;;;;;;;6.30;3.30;;;5.60;99.90;;;;;;5092688;28;20075;-84
2023/04/21 01:32:12;;;;;;;5.75;3.67;;;5.60;99.90;;;;;;5088722;28;20096;-84
2023/04/21 01:34:39;;;;;;;5.60;3.33;;;5.60;99.90;;;;;;5117965;28;20035;-84
2023/04/21 01:37:17;;;;;;;5.13;3.35;;;5.60;99.90;;;;;;5100853;28;20107;-84
2023/04/21 01:39:45;;;;;;;5.85;3.53;;;5.60;99.90;;;;;;5118306;28;20436;-84
2023/04/21 01:42:11;;;;;;;7.40;4.57;;;5.60;99.90;;;;;;5117859;28;20122;-84
2023/04/21 01:44:38;;;;;;;7.38;4.28;;;5.60;99.90;;;;;;5100760;28;20118;-84
2023/04/21 01:47:06;;;;;;;6.05;3.70;;;5.60;99.90;;;;;;5096057;28;20028;-84
2023/04/21 01:49:32;;;;;;;4.63;2.97;;;5.60;99.90;;;;;;5077436;28;20119;-84
2023/04/21 01:51:57;;;;;;;4.65;3.15;;;5.60;99.90;;;;;;5060817;28;20051;-84
2023/04/21 01:54:23;;;;;;;4.65;3.38;;;5.50;99.90;;;;;;5060498;28;20131;-84
2023/04/21 01:56:49;;;;;;;6.22;3.63;;;5.50;99.90;;;;;;5060653;28;20035;-84
2023/04/21 01:59:14;;;;;;;7.35;3.25;;;5.50;99.90;;;;;;5077936;28;20036;-84
2023/04/21 02:01:40;;;;;;;5.88;3.15;;;5.50;99.90;;;;;;5077904;28;20032;-84
2023/04/21 02:04:06;;;;;;;4.90;3.40;;;5.60;99.90;;;;;;5081070;28;20111;-84
2023/04/21 02:06:31;;;;;;;6.30;3.65;;;5.50;99.90;;;;;;5081205;28;20039;-84
2023/04/21 02:08:57;;;;;;;5.68;3.70;;;5.50;99.90;;;;;;5064143;28;20065;-84
2023/04/21 02:11:24;;;;;;;6.53;3.67;;;5.50;99.90;;;;;;5064149;28;20047;-84
2023/04/21 02:13:52;;;;;;;5.43;3.67;;;5.50;99.90;;;;;;5101407;27;20035;-84
2023/04/21 02:16:19;;;;;;;5.40;3.88;;;5.40;99.90;;;;;;5104345;27;20038;-84
2023/04/21 02:18:45;;;;;;;5.32;3.53;;;5.40;99.90;;;;;;5102596;28;20101;-84
2023/04/21 02:21:11;;;;;;;7.22;4.10;;;5.40;99.90;;;;;;5067529;28;20181;-84
2023/04/21 02:23:37;;;;;;;13.57;7.78;;;5.40;99.90;;;;;;5102057;27;20492;-84
2023/04/21 02:26:02;;;;;;;13.02;7.30;;;5.30;99.90;;;;;;5104244;27;20066;-84
2023/04/21 02:28:28;;;;;;;12.38;7.38;;;5.30;99.90;;;;;;5104395;27;20133;-84
2023/04/21 02:30:54;;;;;;;11.23;6.53;;;5.30;99.90;;;;;;5087280;27;20039;-84
2023/04/21 02:33:19;;;;;;;10.02;6.28;;;5.30;99.90;;;;;;5086906;27;20092;-84
2023/04/21 02:35:45;;;;;;;9.85;6.03;;;5.30;99.90;;;;;;5101973;27;20058;-84
2023/04/21 02:38:11;;;;;;;9.88;5.65;;;5.30;99.90;;;;;;5100987;28;20036;-84
2023/04/21 02:40:37;;;;;;;8.85;5.85;;;5.40;99.90;;;;;;5099481;27;20485;-84
2023/04/21 02:43:02;;;;;;;9.30;5.30;;;5.30;99.90;;;;;;5095987;28;20040;-84
2023/04/21 02:45:28;;;;;;;10.57;5.72;;;5.30;99.90;;;;;;5080821;27;20516;-84
2023/04/21 02:47:54;;;;;;;8.40;5.05;;;5.40;99.90;;;;;;5120305;27;20408;-84
2023/04/21 02:50:20;;;;;;;8.27;5.43;;;5.40;99.90;;;;;;5103491;27;20122;-84
2023/04/21 02:52:45;;;;;;;8.27;5.47;;;5.40;99.90;;;;;;5103214;27;20042;-83
2023/04/21 02:55:11;;;;;;;8.77;5.82;;;5.30;99.90;;;;;;5085555;27;20035;-83
2023/04/21 02:57:37;;;;;;;8.98;5.18;;;5.40;99.90;;;;;;5119535;27;20031;-83
2023/04/21 03:00:03;;;;;;;8.23;5.03;;;5.30;99.90;;;;;;5119480;27;20547;-83
2023/04/21 03:02:30;;;;;;;8.65;4.65;;;5.30;99.90;;;;;;5082142;27;20105;-83
2023/04/21 03:04:55;;;;;;;8.75;5.50;;;5.30;99.90;;;;;;5095159;28;20028;-83
2023/04/21 03:07:21;;;;;;;9.68;5.95;;;5.40;99.90;;;;;;5078619;28;20055;-83
2023/04/21 03:09:47;;;;;;;11.80;6.38;;;5.40;99.90;;;;;;5061302;28;20043;-83
2023/04/21 03:12:12;;;;;;;10.50;6.10;;;5.30;99.90;;;;;;5078395;28;20039;-83
2023/04/21 03:14:38;;;;;;;9.07;5.95;;;5.30;99.90;;;;;;5077634;28;20044;-83
2023/04/21 03:17:04;;;;;;;8.20;5.45;;;5.30;99.90;;;;;;5061703;28;20036;-83
2023/04/21 03:19:30;;;;;;;7.88;5.18;;;5.30;99.90;;;;;;5044747;28;20101;-83
2023/04/21 03:21:55;;;;;;;6.53;4.22;;;5.40;99.90;;;;;;5080077;28;20036;-83
2023/04/21 03:24:21;;;;;;;6.45;4.32;;;5.40;99.90;;;;;;5081722;28;20062;-83
2023/04/21 03:26:47;;;;;;;5.47;3.80;;;5.30;99.90;;;;;;5082262;28;20031;-83
2023/04/21 03:29:13;;;;;;;7.82;4.32;;;5.30;99.90;;;;;;5100079;28;20043;-84
2023/04/21 03:31:39;;;;;;;6.25;3.70;;;5.30;99.90;;;;;;5063011;28;20455;-84
2023/04/21 03:34:04;;;;;;;5.47;4.07;;;5.30;99.90;;;;;;5062349;28;20581;-84
2023/04/21 03:36:30;;;;;;;6.13;3.97;;;5.30;99.90;;;;;;5063530;28;20040;-84
2023/04/21 03:38:57;;;;;;;7.60;4.45;;;5.30;99.90;;;;;;5081797;28;20085;-84
2023/04/21 03:41:23;;;;;;;6.38;4.07;;;5.30;99.90;;;;;;5063221;28;20036;-84
2023/04/21 03:43:52;;;;;;;6.32;4.15;;;5.30;99.90;;;;;;5062427;28;20043;-84
2023/04/21 03:46:21;;;;;;;6.85;4.32;;;5.30;99.90;;;;;;5062236;28;20062;-84
2023/04/21 03:48:47;;;;;;;6.07;3.95;;;5.30;99.90;;;;;;5092422;28;20562;-83
2023/04/21 03:51:13;;;;;;;6.18;4.40;;;5.30;99.90;;;;;;5081196;28;20528;-83
2023/04/21 03:53:39;;;;;;;8.38;5.15;;;5.30;99.90;;;;;;5098318;28;20039;-83
2023/04/21 03:56:06;;;;;;;6.60;4.57;;;5.30;99.90;;;;;;5097645;28;20453;-83
2023/04/21 03:58:32;;;;;;;8.35;5.75;;;5.30;99.90;;;;;;5097724;28;20059;-83
2023/04/21 04:00:58;;;;;;;9.27;5.95;;;5.20;99.90;;;;;;5089849;27;20062;-82
2023/04/21 04:03:23;;;;;;;9.40;5.70;;;5.30;99.90;;;;;;5099153;27;20047;-83
2023/04/21 04:05:49;;;;;;;8.68;4.85;;;5.30;99.90;;;;;;5080790;28;20032;-83
2023/04/21 04:08:15;;;;;;;6.43;4.63;;;5.30;99.90;;;;;;5097643;28;20043;-83
2023/04/21 04:10:40;;;;;;;8.10;4.80;;;5.20;99.90;;;;;;5080847;28;20031;-82
2023/04/21 04:13:06;;;;;;;6.82;4.50;;;5.20;99.90;;;;;;5097572;28;20542;-83
2023/04/21 04:15:32;;;;;;;14.23;9.25;;;5.20;99.90;;;;;;5063975;28;20032;-83
2023/04/21 04:17:58;;;;;;;15.98;10.93;;;5.20;99.90;;;;;;5078297;27;20038;-83
2023/04/21 04:20:24;;;;;;;15.18;9.30;;;5.20;99.90;;;;;;5094734;28;20043;-83
2023/04/21 04:22:50;;;;;;;12.27;7.88;;;5.20;99.90;;;;;;5101126;27;20553;-83
2023/04/21 04:25:16;;;;;;;10.98;7.03;;;5.20;99.90;;;;;;5075726;28;20123;-83
2023/04/21 04:27:45;;;;;;;9.57;6.18;;;5.20;99.90;;;;;;5079389;28;20498;-82
2023/04/21 04:30:12;;;;;;;8.95;5.60;;;5.20;99.90;;;;;;5060784;28;20513;-80
2023/04/21 04:32:38;;;;;;;9.23;5.45;;;5.20;99.90;;;;;;5084900;28;20050;-80
2023/04/21 04:35:05;;;;;;;9.88;5.63;;;5.20;99.90;;;;;;5116859;27;20066;-80
2023/04/21 04:37:33;;;;;;;8.90;5.20;;;5.20;99.90;;;;;;5115022;27;20084;-80
2023/04/21 04:39:59;;;;;;;8.55;5.22;;;5.20;99.90;;;;;;5116908;27;20034;-80
2023/04/21 04:42:25;;;;;;;10.60;6.53;;;5.20;99.90;;;;;;5116887;27;20101;-79
2023/04/21 04:44:53;;;;;;;12.68;8.02;;;5.20;99.90;;;;;;5134963;27;20035;-80
2023/04/21 04:47:19;;;;;;;10.43;7.82;;;5.20;99.90;;;;;;5097066;28;20462;-79
2023/04/21 04:49:45;;;;;;;11.88;7.82;;;5.20;99.90;;;;;;5116074;27;20064;-79
2023/04/21 04:52:11;;;;;;;10.20;6.80;;;5.20;99.90;;;;;;5079169;28;20481;-80
2023/04/21 04:54:37;;;;;;;9.77;6.45;;;5.10;99.90;;;;;;5078529;28;20042;-80
2023/04/21 04:57:02;;;;;;;10.95;7.00;;;5.20;99.90;;;;;;5106084;28;20505;-79
2023/04/21 04:59:29;;;;;;;12.07;7.28;;;5.20;99.90;;;;;;5083052;28;20562;-79
2023/04/21 05:01:56;;;;;;;10.45;6.95;;;5.20;99.90;;;;;;5102256;28;20072;-80
2023/04/21 05:04:22;;;;;;;13.48;7.13;;;5.20;99.90;;;;;;5093796;28;20037;-79
2023/04/21 05:06:48;;;;;;;12.80;6.85;;;5.20;99.90;;;;;;5094204;28;20028;-79
2023/04/21 05:09:15;;;;;;;12.82;6.90;;;5.20;99.90;;;;;;5075598;28;20402;-80
2023/04/21 05:11:41;;;;;;;11.73;7.45;;;5.20;99.90;;;;;;5093800;28;20082;-79
2023/04/21 05:14:06;;;;;;;13.57;8.35;;;5.20;99.90;;;;;;5093671;28;20449;-80
2023/04/21 05:16:33;;;;;;;16.42;10.98;;;5.30;99.90;;;;;;5075677;28;20024;-79
2023/04/21 05:19:03;;;;;;;14.35;10.77;;;5.30;99.90;;;;;;5078205;28;20019;-78
2023/04/21 05:21:28;;;;;;;16.92;12.43;;;5.40;99.90;;;;;;5102011;28;20103;-80
2023/04/21 05:23:58;;;;;;;18.77;14.27;;;5.40;99.90;;;;;;5088699;28;20518;-80
2023/04/21 05:26:26;;;;;;;16.13;12.60;;;5.50;99.90;;;;;;5075285;28;20036;-80
2023/04/21 05:28:53;;;;;;;14.25;10.20;;;5.50;99.90;;;;;;5093509;28;20079;-80
2023/04/21 05:31:19;;;;;;;14.27;9.20;;;5.60;99.90;;;;;;5079881;28;20043;-79
2023/04/21 05:33:44;;;;;;;15.07;8.63;;;5.60;99.90;;;;;;5095728;28;20062;-80
2023/04/21 05:36:10;;;;;;;12.93;7.80;;;5.70;99.90;;;;;;5109528;28;20042;-78
2023/04/21 05:38:36;;;;;;;13.40;8.73;;;5.80;99.90;;;;;;5098943;28;20032;-78
2023/04/21 05:41:03;;;;;;;14.07;9.15;;;5.80;99.90;;;;;;5082115;28;20062;-77
2023/04/21 05:43:32;;;;;;;13.85;8.82;;;5.90;99.90;;;;;;5081526;28;20048;-77
2023/04/21 05:45:58;;;;;;;12.77;8.18;;;5.90;99.90;;;;;;5099798;28;20036;-77
2023/04/21 05:48:24;;;;;;;13.77;8.18;;;6.00;99.90;;;;;;5081435;28;20061;-77
2023/04/21 05:50:49;;;;;;;15.90;9.93;;;6.10;99.90;;;;;;5082070;28;20040;-77
2023/04/21 05:53:15;;;;;;;14.07;9.75;;;6.20;99.90;;;;;;5100031;28;20036;-77
2023/04/21 05:55:41;;;;;;;17.70;11.63;;;6.30;99.90;;;;;;5081686;28;20501;-77
2023/04/21 05:58:07;;;;;;;19.70;12.80;;;6.40;99.90;;;;;;5064907;28;20040;-77
2023/04/21 06:00:33;;;;;;;16.08;10.88;;;6.50;99.90;;;;;;5081474;28;20032;-77
2023/04/21 06:02:58;;;;;;;22.27;14.23;;;6.60;99.90;;;;;;5080509;28;20034;-77
2023/04/21 06:05:24;;;;;;;21.33;13.38;;;6.70;99.90;;;;;;5079893;28;20063;-78
2023/04/21 06:07:50;;;;;;;19.25;13.27;;;6.80;99.90;;;;;;5099066;28;20032;-77
2023/04/21 06:10:17;;;;;;;18.95;12.07;;;6.90;99.90;;;;;;5080526;28;20040;-77
2023/04/21 06:12:42;;;;;;;18.63;12.32;;;7.00;99.90;;;;;;5080104;28;20097;-78
2023/04/21 06:15:08;;;;;;;20.23;12.63;;;7.10;99.90;;;;;;5080285;28;20025;-77
2023/04/21 06:17:34;;;;;;;16.80;11.45;;;7.20;99.90;;;;;;5098636;28;20499;-77
2023/04/21 06:20:00;;;;;;;17.02;11.68;;;7.30;99.90;;;;;;5080741;28;20040;-77
2023/04/21 06:22:26;;;;;;;16.85;11.57;;;7.40;99.90;;;;;;5079859;28;20032;-77
2023/04/21 06:24:52;;;;;;;16.45;10.95;;;7.40;99.90;;;;;;5098074;28;20400;-77
2023/04/21 06:27:17;;;;;;;16.85;10.25;;;7.40;99.90;;;;;;5079940;28;20032;-77
2023/04/21 06:29:43;;;;;;;16.33;9.82;;;7.50;99.90;;;;;;5098551;28;20109;-77
2023/04/21 06:32:12;;;;;;;14.05;9.20;;;7.50;99.90;;;;;;5088044;28;20036;-77
2023/04/21 06:34:38;;;;;;;12.68;7.68;;;7.60;99.90;;;;;;5080271;28;20123;-77
2023/04/21 06:37:04;;;;;;;13.63;8.65;;;7.60;99.90;;;;;;5098575;28;20107;-77
2023/04/21 06:39:30;;;;;;;12.55;8.15;;;7.60;99.90;;;;;;5080492;28;20078;-77
2023/04/21 06:41:57;;;;;;;13.63;8.70;;;7.70;99.90;;;;;;5080148;28;20032;-77
2023/04/21 06:44:22;;;;;;;14.02;9.18;;;7.70;99.90;;;;;;5098358;28;20036;-77
2023/04/21 06:46:48;;;;;;;13.40;9.30;;;7.70;99.90;;;;;;5080103;28;20146;-77
2023/04/21 06:49:14;;;;;;;14.82;9.07;;;7.70;99.90;;;;;;5062320;28;20503;-77
2023/04/21 06:51:40;;;;;;;13.07;8.73;;;7.80;99.90;;;;;;5079938;28;20033;-77
2023/04/21 06:54:05;;;;;;;13.25;8.65;;;7.80;99.90;;;;;;5112842;28;20482;-78
2023/04/21 06:56:32;;;;;;;13.70;8.73;;;7.80;99.90;;;;;;5109164;28;20397;-77
2023/04/21 06:58:57;;;;;;;11.73;7.55;;;7.90;99.90;;;;;;5080180;28;20043;-79
2023/04/21 07:01:23;;;;;;;14.70;9.05;;;7.90;99.90;;;;;;5098877;28;20485;-77
2023/04/21 07:03:50;;;;;;;17.25;10.43;;;7.90;99.90;;;;;;5118152;28;20047;-77
2023/04/21 07:06:16;;;;;;;16.13;9.90;;;7.90;99.90;;;;;;5100183;28;20548;-77
2023/04/21 07:08:41;;;;;;;15.23;9.60;;;8.00;99.90;;;;;;5111964;28;20079;-77
2023/04/21 07:11:07;;;;;;;13.48;8.90;;;8.00;99.90;;;;;;5085777;28;20115;-77
2023/04/21 07:13:33;;;;;;;13.85;8.63;;;8.00;99.90;;;;;;5105537;28;20040;-77
2023/04/21 07:15:59;;;;;;;15.18;8.98;;;8.00;99.90;;;;;;5106331;28;20040;-77
2023/04/21 07:18:24;;;;;;;11.52;8.23;;;8.10;99.90;;;;;;5097532;28;20486;-77
2023/04/21 07:20:51;;;;;;;13.80;9.00;;;8.20;99.90;;;;;;5097701;28;20024;-77
2023/04/21 07:23:17;;;;;;;12.48;8.18;;;8.20;99.90;;;;;;5097366;28;20028;-77
2023/04/21 07:25:43;;;;;;;12.05;7.90;;;8.30;99.90;;;;;;5080696;28;20173;-77
2023/04/21 07:28:09;;;;;;;11.32;7.03;;;8.40;99.90;;;;;;5096974;28;20060;-77
2023/04/21 07:30:35;;;;;;;15.27;8.50;;;8.40;99.90;;;;;;5096852;28;20571;-77
2023/04/21 07:33:01;;;;;;;13.95;8.05;;;8.50;99.90;;;;;;5097746;28;20063;-77
2023/04/21 07:35:27;;;;;;;13.48;8.05;;;8.60;99.90;;;;;;5117921;28;20043;-77
2023/04/21 07:37:52;;;;;;;11.27;6.93;;;8.70;99.90;;;;;;5097845;28;20032;-77
2023/04/21 07:40:18;;;;;;;9.30;6.78;;;8.70;99.90;;;;;;5082400;28;20493;-78
2023/04/21 07:42:44;;;;;;;9.02;6.13;;;8.80;99.90;;;;;;5082344;28;20411;-77
2023/04/21 07:45:10;;;;;;;8.60;5.68;;;8.90;99.90;;;;;;5099263;28;20034;-77
2023/04/21 07:47:36;;;;;;;8.63;5.53;;;9.00;99.90;;;;;;5117216;28;20111;-78
2023/04/21 07:50:02;;;;;;;8.00;5.47;;;9.00;99.90;;;;;;5099076;28;20496;-78
2023/04/21 07:52:27;;;;;;;9.20;6.13;;;9.10;99.90;;;;;;5117107;28;20032;-77
2023/04/21 07:54:53;;;;;;;11.15;6.43;;;9.10;99.90;;;;;;5098779;28;20039;-77
2023/04/21 07:57:19;;;;;;;10.57;5.90;;;9.20;99.90;;;;;;5098313;28;20366;-78
2023/04/21 07:59:45;;;;;;;10.07;5.60;;;9.20;99.90;;;;;;5116215;28;20092;-78
2023/04/21 08:02:10;;;;;;;8.60;4.68;;;9.20;99.90;;;;;;5116593;28;20035;-78
2023/04/21 08:04:36;;;;;;;10.00;6.28;;;9.10;99.90;;;;;;5116869;28;20027;-78
2023/04/21 08:07:02;;;;;;;10.43;6.43;;;9.10;99.90;;;;;;5116934;28;20038;-78
2023/04/21 08:09:28;;;;;;;8.93;6.00;;;9.20;99.90;;;;;;5116502;28;20100;-78
2023/04/21 08:11:54;;;;;;;9.48;5.35;;;9.20;99.90;;;;;;5081153;28;20040;-78
2023/04/21 08:14:20;;;;;;;8.75;5.82;;;9.30;99.90;;;;;;5098478;28;20485;-78
2023/04/21 08:16:45;;;;;;;6.80;5.00;;;9.40;99.90;;;;;;5116198;28;20019;-78
2023/04/21 08:19:11;;;;;;;7.75;5.20;;;9.50;99.90;;;;;;5116288;28;20032;-78
2023/04/21 08:21:38;;;;;;;8.43;5.68;;;9.50;99.90;;;;;;5097763;28;20078;-78
2023/04/21 08:24:04;;;;;;;8.25;5.40;;;9.60;99.90;;;;;;5115487;28;20034;-78
2023/04/21 08:26:32;;;;;;;7.28;4.70;;;9.70;99.90;;;;;;5116163;28;20557;-78
2023/04/21 08:28:58;;;;;;;8.00;5.45;;;9.70;99.90;;;;;;5116310;28;20031;-78
2023/04/21 08:31:25;;;;;;;7.88;4.70;;;9.90;99.90;;;;;;5116742;28;20035;-78
2023/04/21 08:33:52;;;;;;;8.02;4.78;;;10.00;99.90;;;;;;5098056;28;20085;-77
2023/04/21 08:36:19;;;;;;;6.18;3.95;;;10.10;99.90;;;;;;5116304;28;20393;-78
2023/04/21 08:38:45;;;;;;;9.02;5.03;;;10.20;99.90;;;;;;5098530;28;20411;-77
2023/04/21 08:41:12;;;;;;;8.50;4.85;;;10.30;99.90;;;;;;5098849;28;20122;-77
2023/04/21 08:43:37;;;;;;;9.13;5.68;;;10.40;99.90;;;;;;5098542;28;20032;-77
2023/04/21 08:46:07;;;;;;;9.00;4.88;;;10.40;99.90;;;;;;5099124;28;20107;-77
2023/04/21 08:48:37;;;;;;;8.55;4.93;;;10.50;99.90;;;;;;5116934;28;20127;-77
2023/04/21 08:51:05;;;;;;;8.20;5.47;;;10.60;99.90;;;;;;5099041;28;20084;-77
2023/04/21 08:53:31;;;;;;;8.55;5.20;;;10.60;99.90;;;;;;5098201;28;20032;-77
2023/04/21 08:55:57;;;;;;;7.38;4.53;;;10.70;99.90;;;;;;5098457;28;20519;-77
2023/04/21 08:58:22;;;;;;;9.65;4.82;;;10.90;99.90;;;;;;5099537;28;20028;-77
2023/04/21 09:00:49;;;;;;;10.20;4.50;;;11.00;99.90;;;;;;5116781;28;20058;-77
2023/04/21 09:03:22;;;;;;;6.63;3.95;;;11.10;99.90;;;;;;5098839;28;20043;-77
2023/04/21 09:05:57;;;;;;;5.55;3.45;;;11.20;99.90;;;;;;5117886;28;20107;-77
2023/04/21 09:08:24;;;;;;;6.15;4.43;;;11.30;99.90;;;;;;5117442;28;20488;-77
2023/04/21 09:10:54;;;;;;;6.22;4.10;;;11.40;99.90;;;;;;5098373;28;20065;-77
2023/04/21 09:13:22;;;;;;;7.68;3.80;;;11.40;99.90;;;;;;5082251;28;20059;-77
2023/04/21 09:15:51;;;;;;;5.05;3.80;;;11.50;99.90;;;;;;5116939;28;20026;-77
2023/04/21 09:18:21;;;;;;;8.43;3.75;;;11.50;99.90;;;;;;5116958;28;20024;-77
2023/04/21 09:20:49;;;;;;;5.63;3.58;;;11.60;99.90;;;;;;5117082;28;20031;-77
2023/04/21 09:23:15;;;;;;;6.38;4.32;;;11.70;99.90;;;;;;5098856;28;20035;-77
2023/04/21 09:25:44;;;;;;;10.88;3.90;;;11.90;99.90;;;;;;5116896;28;20043;-77
2023/04/21 09:28:11;;;;;;;5.70;3.28;;;12.00;99.90;;;;;;5116729;28;20108;-77
2023/04/21 09:30:39;;;;;;;5.50;3.47;;;12.10;99.90;;;;;;5116973;28;20034;-77
2023/04/21 09:33:05;;;;;;;5.13;3.08;;;12.30;99.90;;;;;;5097688;28;20047;-77
2023/04/21 09:35:35;;;;;;;5.10;3.00;;;12.50;99.90;;;;;;5096925;28;20028;-77
2023/04/21 09:38:03;;;;;;;11.13;3.22;;;12.60;99.90;;;;;;5097093;28;20570;-77
2023/04/21 09:40:29;;;;;;;6.40;3.10;;;12.70;99.90;;;;;;5107263;28;20024;-77
2023/04/21 09:42:55;;;;;;;4.70;2.60;;;12.80;99.90;;;;;;5105284;28;20033;-77
2023/04/21 09:45:25;;;;;;;3.97;2.53;;;13.00;99.90;;;;;;5073728;28;20047;-77
2023/04/21 09:47:57;;;;;;;7.45;2.83;;;13.20;99.90;;;;;;5102900;28;20389;-78
2023/04/21 09:50:24;;;;;;;5.63;2.90;;;13.30;99.90;;;;;;5096807;28;20032;-78
2023/04/21 09:52:51;;;;;;;4.50;2.75;;;13.50;99.90;;;;;;5078388;28;20036;-77
2023/04/21 09:55:18;;;;;;;6.18;2.50;;;13.60;99.90;;;;;;5096503;28;20107;-77
2023/04/21 09:57:49;;;;;;;3.88;2.35;;;13.70;99.90;;;;;;5078817;28;20111;-77
2023/04/21 10:00:17;;;;;;;6.75;2.00;;;13.80;99.90;;;;;;5097089;28;20028;-77
2023/04/21 10:02:51;;;;;;;5.43;2.80;;;14.00;99.90;;;;;;5091023;28;20537;-77
2023/04/21 10:05:17;;;;;;;2.40;1.90;;;14.20;99.90;;;;;;5078922;28;20032;-77
2023/04/21 10:07:47;;;;;;;4.13;2.20;;;14.20;99.90;;;;;;5106977;28;20458;-77
2023/04/21 10:10:25;;;;;;;4.97;2.17;;;14.30;99.90;;;;;;5082365;28;20036;-75
2023/04/21 10:12:51;;;;;;;4.50;2.00;;;14.50;99.90;;;;;;5083966;28;20450;-77
2023/04/21 10:15:38;;;;;;;5.05;2.08;;;14.50;99.90;;;;;;5083728;28;20042;-76
2023/04/21 10:18:15;;;;;;;3.05;1.95;;;14.60;99.90;;;;;;5103259;28;20036;-75
2023/04/21 10:20:55;;;;;;;7.32;1.60;;;14.60;99.90;;;;;;5115947;28;20111;-75
2023/04/21 10:23:34;;;;;;;2.47;1.38;;;14.70;99.90;;;;;;5117572;28;20106;-75
2023/04/21 10:26:02;;;;;;;3.30;1.30;;;14.90;99.90;;;;;;5118833;28;20035;-75
2023/04/21 10:28:43;;;;;;;7.75;1.70;;;15.00;99.90;;;;;;5119459;28;20137;-75
2023/04/21 10:31:48;;;;;;;2.88;1.75;;;15.10;99.90;;;;;;5116446;28;20103;-75
2023/04/21 10:34:15;;;;;;;2.83;1.60;;;15.20;99.90;;;;;;5098746;28;20047;-75
2023/04/21 10:36:53;;;;;;;4.10;1.65;;;15.40;99.90;;;;;;5098717;28;20046;-75
2023/04/21 10:39:47;;;;;;;3.38;1.23;;;15.50;99.90;;;;;;5098124;28;20081;-75
2023/04/21 10:42:12;;;;;;;2.13;1.00;;;15.70;99.90;;;;;;5099100;28;20094;-75
2023/04/21 10:44:52;;;;;;;2.35;1.00;;;15.90;99.90;;;;;;5098615;28;20032;-75
2023/04/21 10:47:48;;;;;;;1.50;0.90;;;16.10;97.00;;;;;;5098654;28;20078;-75
2023/04/21 10:50:21;;;;;;;7.13;2.20;;;16.20;99.90;;;;;;5064496;28;20126;-75
2023/04/21 10:53:08;;;;;;;6.30;2.05;;;16.40;98.30;;;;;;5080751;28;20036;-75
2023/04/21 10:55:34;;;;;;;1.95;0.88;;;16.70;96.90;;;;;;5098272;28;20056;-75
2023/04/21 10:58:06;;;;;;;1.42;0.98;;;16.80;91.90;;;;;;5080525;28;20031;-76
2023/04/21 11:00:32;;;;;;;2.08;0.80;;;16.70;93.20;;;;;;5110561;28;20059;-75
2023/04/21 11:03:01;;;;;;;1.10;0.65;;;16.90;89.60;;;;;;5119043;28;20043;-75
2023/04/21 11:05:28;;;;;;;1.90;0.80;;;17.00;84.10;;;;;;5100137;28;20396;-75
2023/04/21 11:08:05;;;;;;;0.75;0.60;;;17.10;79.00;;;;;;5118144;28;20031;-75
2023/04/21 11:10:52;;;;;;;1.13;0.70;;;17.30;83.00;;;;;;5100261;28;20058;-76
2023/04/21 11:13:20;;;;;;;2.55;0.68;;;17.50;78.50;;;;;;5119044;28;20035;-76
2023/04/21 11:16:06;;;;;;;1.73;0.93;;;17.60;78.40;;;;;;5118999;28;20032;-75
2023/04/21 11:18:43;;;;;;;1.27;0.70;;;17.70;83.10;;;;;;5118397;28;20040;-76
2023/04/21 11:21:21;;;;;;;2.17;0.90;;;17.90;76.80;;;;;;5117987;28;20114;-75
2023/04/21 11:23:49;;;;;;;3.67;1.48;;;18.10;74.90;;;;;;5118039;28;20111;-75
2023/04/21 11:26:16;;;;;;;2.85;1.00;;;18.20;81.10;;;;;;5117619;28;20020;-75
2023/04/21 11:28:41;;;;;;;1.58;0.90;;;18.30;74.00;;;;;;5099689;28;20028;-76
2023/04/21 11:31:07;;;;;;;1.50;0.65;;;18.30;70.60;;;;;;5082763;28;20495;-76
2023/04/21 11:33:37;;;;;;;1.42;0.60;;;18.30;72.10;;;;;;5119256;27;20405;-76
2023/04/21 11:36:07;;;;;;;1.73;0.90;;;18.40;71.10;;;;;;5114114;27;21007;-76
2023/04/21 11:38:40;;;;;;;3.10;0.90;;;18.40;71.40;;;;;;5113561;27;20103;-76
2023/04/21 11:41:08;;;;;;;1.60;0.70;;;18.40;73.20;;;;;;5093328;28;20035;-77
2023/04/21 11:43:34;;;;;;;1.38;0.80;;;18.50;71.30;;;;;;5096557;28;20040;-76
2023/04/21 11:46:21;;;;;;;1.17;0.63;;;18.70;70.90;;;;;;5097873;28;20059;-76
2023/04/21 11:49:01;;;;;;;1.00;0.60;;;18.90;71.30;;;;;;5112224;28;20124;-76
2023/04/21 11:51:41;;;;;;;1.50;0.73;;;19.00;68.20;;;;;;5097215;28;20039;-76
2023/04/21 11:54:12;;;;;;;1.45;0.60;;;19.20;77.10;;;;;;5083430;28;20045;-76
2023/04/21 11:56:44;;;;;;;1.27;0.73;;;19.30;68.20;;;;;;5117348;28;20035;-76
2023/04/21 11:59:15;;;;;;;2.25;0.80;;;19.40;67.30;;;;;;5116745;28;20046;-77
2023/04/21 12:01:49;;;;;;;2.88;0.80;;;19.30;67.30;;;;;;5104529;28;20040;-76
2023/04/21 12:04:20;;;;;;;1.58;0.73;;;19.40;70.10;;;;;;5106603;28;20043;-76
2023/04/21 12:06:55;;;;;;;1.50;0.90;;;19.60;74.40;;;;;;5116409;28;20035;-76
2023/04/21 12:09:21;;;;;;;2.58;0.90;;;19.80;69.30;;;;;;5099943;28;20035;-76
2023/04/21 12:11:49;;;;;;;1.00;0.63;;;19.90;66.50;;;;;;5098495;28;20055;-76
2023/04/21 12:14:15;;;;;;;2.22;0.60;;;20.10;67.40;;;;;;5100815;28;20036;-76
2023/04/21 12:16:41;;;;;;;1.30;0.70;;;20.20;63.00;;;;;;5115930;28;20030;-76
2023/04/21 12:19:07;;;;;;;0.98;0.60;;;20.30;65.30;;;;;;5107727;28;20027;-76
2023/04/21 12:21:32;;;;;;;1.83;0.80;;;20.50;66.60;;;;;;5117196;28;20043;-77
2023/04/21 12:23:58;;;;;;;1.90;0.85;;;20.60;68.10;;;;;;5107363;28;20057;-76
2023/04/21 12:26:24;;;;;;;0.82;0.65;;;20.70;62.80;;;;;;5104327;28;20039;-77
2023/04/21 12:28:50;;;;;;;1.23;0.75;;;20.80;66.40;;;;;;5115973;28;20032;-76
2023/04/21 12:31:17;;;;;;;1.13;0.80;;;20.60;59.20;;;;;;5111256;28;20030;-76
2023/04/21 12:33:43;;;;;;;1.60;0.80;;;20.40;62.00;;;;;;5096889;28;20155;-76
2023/04/21 12:36:09;;;;;;;1.20;0.70;;;20.50;62.70;;;;;;5080597;28;20060;-76
2023/04/21 12:38:35;;;;;;;1.30;0.88;;;20.60;64.50;;;;;;5094753;28;20047;-76
2023/04/21 12:41:00;;;;;;;1.45;0.70;;;20.70;62.10;;;;;;5077874;28;20028;-76
2023/04/21 12:43:26;;;;;;;1.40;0.80;;;20.60;62.50;;;;;;5099041;28;20555;-76
2023/04/21 12:45:52;;;;;;;1.45;0.82;;;20.60;59.60;;;;;;5111830;27;20070;-76
2023/04/21 12:48:19;;;;;;;1.63;0.60;;;20.80;63.40;;;;;;5115257;28;20038;-77
2023/04/21 12:50:48;;;;;;;1.20;0.55;;;21.10;64.40;;;;;;5102261;28;20024;-76
2023/04/21 12:53:14;;;;;;;2.47;1.00;;;21.40;64.20;;;;;;5096597;28;20216;-76